Time;durP1;ratioP1;P1;durP2;ratioP2;P2;SDS_P1;SDS_P2;PMS_P1;PMS_P2;Temp;Humidity;BMP_temperature;BMP_pressure;BME280_temperature;BME280_humidity;BME280_pressure;Samples;Min_cycle;Max_cycle;Signal;HPM_P1;HPM_P2
2023/08/02 00:02:01;;;;;;;3.47;1.90;;;16.40;99.90;;;17.27;100.00;97042.63;5025022;28;20470;-87
2023/08/02 00:04:31;;;;;;;6.63;2.30;;;16.40;99.90;;;17.23;100.00;97034.41;5024169;28;21075;-88
2023/08/02 00:07:00;;;;;;;6.20;2.27;;;16.40;99.90;;;17.19;100.00;97028.03;5021869;28;21071;-87
2023/08/02 00:09:29;;;;;;;2.53;1.87;;;16.40;99.90;;;17.17;100.00;97024.88;5025800;28;20469;-87
2023/08/02 00:12:00;;;;;;;4.17;2.10;;;16.40;99.90;;;17.20;100.00;97032.28;5025417;28;20490;-87
2023/08/02 00:14:30;;;;;;;5.27;2.13;;;16.30;99.90;;;17.17;100.00;97046.00;5026260;28;20474;-87
2023/08/02 00:17:00;;;;;;;4.17;1.70;;;16.40;99.90;;;17.14;100.00;97054.44;5044507;28;20466;-87
2023/08/02 00:19:30;;;;;;;10.00;1.97;;;16.40;99.90;;;17.15;100.00;97048.09;5026636;28;21047;-87
2023/08/02 00:22:01;;;;;;;6.00;2.10;;;16.40;99.90;;;17.20;100.00;97044.69;5027646;28;20462;-88
2023/08/02 00:24:32;;;;;;;4.30;1.80;;;16.30;99.90;;;17.20;100.00;97034.13;5026195;28;20470;-88
2023/08/02 00:27:01;;;;;;;10.03;2.30;;;16.30;99.90;;;17.20;100.00;97034.91;5027051;28;20966;-87
2023/08/02 00:29:33;;;;;;;7.77;2.37;;;16.30;99.90;;;17.18;100.00;97036.22;5023433;28;20474;-87
2023/08/02 00:32:04;;;;;;;3.10;2.00;;;16.30;99.90;;;17.19;100.00;97024.59;5026721;28;20955;-87
2023/08/02 00:34:33;;;;;;;7.50;2.37;;;16.40;99.90;;;17.23;100.00;97017.75;5026017;28;20461;-88
2023/08/02 00:37:04;;;;;;;3.47;2.13;;;16.30;99.90;;;17.23;100.00;97021.19;5023707;28;20462;-87
2023/08/02 00:39:33;;;;;;;2.63;1.80;;;16.40;99.90;;;17.24;100.00;97020.16;5026601;28;20470;-87
2023/08/02 00:42:03;;;;;;;3.47;2.30;;;16.30;99.90;;;17.26;100.00;97010.13;5024696;28;20477;-88
2023/08/02 00:44:34;;;;;;;7.53;2.37;;;16.30;99.90;;;17.28;100.00;97010.69;5026339;28;20454;-87
2023/08/02 00:47:06;;;;;;;6.73;2.97;;;16.40;99.90;;;17.30;100.00;97000.63;5029225;28;20478;-88
2023/08/02 00:49:36;;;;;;;3.57;1.93;;;16.40;99.90;;;17.28;100.00;96999.31;5024778;28;20518;-88
2023/08/02 00:52:08;;;;;;;5.10;2.07;;;16.40;99.90;;;17.31;100.00;97012.00;5026088;28;21216;-88
2023/08/02 00:54:37;;;;;;;7.63;2.37;;;16.40;99.90;;;17.28;100.00;97021.25;5026944;28;20465;-87
2023/08/02 00:57:08;;;;;;;7.00;2.10;;;16.40;99.90;;;17.31;100.00;97012.00;5025955;28;20465;-87
2023/08/02 00:59:38;;;;;;;7.07;2.33;;;16.40;99.90;;;17.27;100.00;97001.16;5023564;28;20466;-87
2023/08/02 01:02:11;;;;;;;7.30;1.80;;;16.40;99.90;;;17.29;100.00;96996.38;5027467;28;20476;-87
2023/08/02 01:04:42;;;;;;;4.93;2.10;;;16.40;99.90;;;17.29;100.00;97006.97;5025831;28;20455;-87
2023/08/02 01:07:22;;;;;;;5.10;1.90;;;16.40;99.90;;;17.29;100.00;96993.75;5024796;28;20458;-88
2023/08/02 01:10:03;;;;;;;4.53;2.70;;;16.40;99.90;;;17.29;100.00;96990.31;5022169;28;20821;-88
2023/08/02 01:12:36;;;;;;;5.83;2.40;;;16.40;99.90;;;17.33;100.00;96996.69;5025848;28;20491;-87
2023/08/02 01:15:11;;;;;;;4.67;2.53;;;16.40;99.90;;;17.28;100.00;96997.47;5025016;28;20484;-88
2023/08/02 01:17:43;;;;;;;3.90;1.93;;;16.40;99.90;;;17.29;100.00;96996.38;5024703;28;20886;-88
2023/08/02 01:20:14;;;;;;;2.83;1.80;;;16.40;99.90;;;17.29;100.00;96999.03;5026312;28;20472;-88
2023/08/02 01:22:44;;;;;;;3.27;2.27;;;16.40;99.90;;;17.26;100.00;96986.34;5024226;28;20602;-88
2023/08/02 01:25:14;;;;;;;6.53;2.47;;;16.50;99.90;;;17.32;100.00;96966.03;5025387;28;20472;-87
2023/08/02 01:27:49;;;;;;;6.33;2.10;;;16.40;99.90;;;17.35;100.00;96968.16;5026306;28;20529;-87
2023/08/02 01:30:25;;;;;;;4.07;2.20;;;16.40;99.90;;;17.34;100.00;96967.34;5023300;28;20488;-88
2023/08/02 01:32:54;;;;;;;6.57;2.10;;;16.40;99.90;;;17.35;100.00;96953.09;5023435;28;20516;-87
2023/08/02 01:35:27;;;;;;;4.20;2.23;;;16.50;99.90;;;17.33;100.00;96947.25;5023758;28;20455;-88
2023/08/02 01:37:58;;;;;;;8.40;2.40;;;16.50;99.90;;;17.36;100.00;96941.47;5023898;28;20857;-87
2023/08/02 01:40:29;;;;;;;2.60;2.07;;;16.50;99.90;;;17.38;100.00;96930.66;5020849;28;21026;-88
2023/08/02 01:42:58;;;;;;;6.97;1.90;;;16.50;99.90;;;17.40;100.00;96936.44;5025077;28;20465;-86
2023/08/02 01:45:29;;;;;;;5.07;2.13;;;16.50;99.90;;;17.41;100.00;96945.97;5027368;28;20819;-88
2023/08/02 01:48:01;;;;;;;3.57;2.50;;;16.60;99.90;;;17.42;100.00;96934.38;5021820;28;20906;-87
2023/08/02 01:50:33;;;;;;;3.13;2.20;;;16.60;99.90;;;17.43;100.00;96935.94;5023721;28;20478;-87
2023/08/02 01:53:03;;;;;;;6.13;2.17;;;16.60;99.90;;;17.45;100.00;96934.66;5024069;28;20494;-88
2023/08/02 01:55:33;;;;;;;4.43;1.93;;;16.60;99.90;;;17.43;100.00;96928.81;5024214;28;20465;-87
2023/08/02 01:58:04;;;;;;;5.93;2.17;;;16.70;99.90;;;17.44;100.00;96919.84;5019279;28;20490;-87
2023/08/02 02:00:34;;;;;;;6.53;2.50;;;16.70;99.90;;;17.43;100.00;96906.88;5021577;28;20490;-87
2023/08/02 02:03:03;;;;;;;7.57;1.90;;;16.70;99.90;;;17.44;100.00;96901.31;5022312;28;20474;-87
2023/08/02 02:05:33;;;;;;;3.57;2.03;;;16.70;99.90;;;17.45;100.00;96895.00;5027280;28;20973;-87
2023/08/02 02:08:04;;;;;;;11.30;2.70;;;16.70;99.90;;;17.46;100.00;96896.56;5021662;28;22045;-87
2023/08/02 02:10:34;;;;;;;2.60;1.93;;;16.70;99.90;;;17.51;100.00;96886.03;5024416;28;20461;-87
2023/08/02 02:13:05;;;;;;;3.50;2.13;;;16.70;99.90;;;17.52;100.00;96874.41;5024629;28;20573;-86
2023/08/02 02:15:36;;;;;;;3.40;2.43;;;16.70;99.90;;;17.52;100.00;96865.69;5024472;28;20475;-86
2023/08/02 02:18:06;;;;;;;5.43;2.00;;;16.70;99.90;;;17.51;100.00;96864.88;5026252;28;20462;-87
2023/08/02 02:20:37;;;;;;;9.80;2.17;;;16.70;99.90;;;17.51;100.00;96867.53;5027304;28;20470;-87
2023/08/02 02:23:08;;;;;;;8.60;1.90;;;16.70;99.90;;;17.53;100.00;96856.66;5022202;28;20853;-87
2023/08/02 02:25:38;;;;;;;6.50;2.20;;;16.70;99.90;;;17.53;100.00;96849.53;5026533;28;20463;-87
2023/08/02 02:28:08;;;;;;;6.67;2.27;;;16.70;99.90;;;17.56;100.00;96845.63;5027890;28;20457;-87
2023/08/02 02:30:38;;;;;;;10.53;2.47;;;16.70;99.90;;;17.59;100.00;96850.41;5027097;28;21233;-86
2023/08/02 02:33:09;;;;;;;6.87;2.20;;;16.70;99.90;;;17.59;100.00;96840.63;5026377;28;21047;-88
2023/08/02 02:35:40;;;;;;;2.67;2.20;;;16.70;99.90;;;17.59;100.00;96832.69;5029815;28;20466;-88
2023/08/02 02:38:10;;;;;;;3.33;1.87;;;16.70;99.90;;;17.59;100.00;96821.31;5029667;28;20469;-88
2023/08/02 02:40:39;;;;;;;4.97;2.33;;;16.70;99.90;;;17.55;100.00;96821.00;5029574;28;21182;-88
2023/08/02 02:43:09;;;;;;;4.43;2.13;;;16.70;99.90;;;17.55;100.00;96815.72;5027609;28;20517;-87
2023/08/02 02:45:39;;;;;;;5.90;2.17;;;16.70;99.90;;;17.58;100.00;96807.28;5026703;28;20516;-88
2023/08/02 02:48:09;;;;;;;3.37;2.00;;;16.70;99.90;;;17.60;100.00;96805.16;5024328;28;20543;-87
2023/08/02 02:50:40;;;;;;;4.83;2.33;;;16.70;99.90;;;17.57;100.00;96804.91;5026942;28;20462;-88
2023/08/02 02:53:09;;;;;;;4.27;2.20;;;16.80;99.90;;;17.56;100.00;96796.16;5026434;28;21113;-88
2023/08/02 02:55:39;;;;;;;3.10;2.40;;;16.80;99.90;;;17.57;100.00;96792.47;5028318;28;20465;-87
2023/08/02 02:58:10;;;;;;;10.20;2.60;;;16.80;99.90;;;17.58;100.00;96783.50;5027697;28;20466;-87
2023/08/02 03:00:40;;;;;;;4.17;2.00;;;16.80;99.90;;;17.59;100.00;96779.81;5023965;28;20453;-87
2023/08/02 03:03:10;;;;;;;3.40;2.00;;;16.80;99.90;;;17.60;100.00;96770.81;5025223;28;20536;-86
2023/08/02 03:05:41;;;;;;;5.27;2.43;;;16.80;99.90;;;17.57;100.00;96775.81;5025905;28;20490;-85
2023/08/02 03:08:12;;;;;;;114.40;63.27;;;16.80;99.90;;;17.59;100.00;96771.88;5032976;28;20461;-86
2023/08/02 03:10:42;;;;;;;4.87;3.50;;;16.80;99.90;;;17.57;100.00;96771.31;5026389;28;20548;-87
2023/08/02 03:13:13;;;;;;;5.30;2.50;;;16.70;99.90;;;17.57;100.00;96776.63;5025996;28;20648;-88
2023/08/02 03:15:43;;;;;;;5.83;2.37;;;16.70;99.90;;;17.55;100.00;96781.34;5026207;28;20474;-88
2023/08/02 03:18:14;;;;;;;4.17;2.20;;;16.80;99.90;;;17.56;100.00;96788.25;5026007;28;20476;-87
2023/08/02 03:20:45;;;;;;;7.47;3.60;;;16.70;99.90;;;17.55;100.00;96794.56;5027322;28;20450;-89
2023/08/02 03:23:15;;;;;;;3.33;2.43;;;16.70;99.90;;;17.54;100.00;96792.97;5022249;28;20834;-81
2023/08/02 03:25:45;;;;;;;5.53;2.40;;;16.70;99.90;;;17.58;100.00;96794.06;5021531;28;20495;-79
2023/08/02 03:28:15;;;;;;;6.10;2.47;;;16.70;99.90;;;17.57;100.00;96781.91;5023318;28;20966;-79
2023/08/02 03:30:45;;;;;;;4.03;2.70;;;16.70;99.90;;;17.53;100.00;96786.09;5020715;28;20463;-80
2023/08/02 03:33:15;;;;;;;5.80;2.93;;;16.80;99.90;;;17.54;100.00;96777.13;5023029;28;20517;-79
2023/08/02 03:35:46;;;;;;;8.30;3.47;;;16.80;99.90;;;17.53;100.00;96770.22;5035202;28;20539;-79
2023/08/02 03:38:17;;;;;;;5.93;2.93;;;16.80;99.90;;;17.55;100.00;96757.56;5022407;28;20972;-79
2023/08/02 03:40:46;;;;;;;5.20;2.40;;;16.80;99.90;;;17.57;100.00;96754.66;5022438;28;20519;-78
2023/08/02 03:43:15;;;;;;;4.30;2.33;;;16.80;99.90;;;17.60;100.00;96751.50;5021432;28;21013;-79
2023/08/02 03:45:45;;;;;;;12.80;2.53;;;16.80;99.90;;;17.59;100.00;96748.09;5024706;28;20465;-79
2023/08/02 03:48:14;;;;;;;3.83;2.20;;;16.80;99.90;;;17.60;100.00;96740.91;5022983;28;20462;-80
2023/08/02 03:50:45;;;;;;;5.10;3.40;;;16.80;99.90;;;17.57;100.00;96739.59;5020488;28;20992;-81
2023/08/02 03:53:15;;;;;;;5.67;2.20;;;16.80;99.90;;;17.53;100.00;96727.94;5018045;28;20529;-81
2023/08/02 03:55:46;;;;;;;7.53;2.50;;;16.80;99.90;;;17.57;100.00;96702.59;5021426;28;20470;-80
2023/08/02 03:58:16;;;;;;;9.73;2.43;;;16.80;99.90;;;17.56;100.00;96695.72;5022509;28;20466;-79
2023/08/02 04:00:47;;;;;;;3.53;2.20;;;16.80;99.90;;;17.55;100.00;96688.03;5022318;28;20614;-80
2023/08/02 04:03:17;;;;;;;10.10;2.43;;;16.80;99.90;;;17.51;100.00;96703.63;5020351;28;20466;-80
2023/08/02 04:05:48;;;;;;;5.80;2.67;;;16.80;99.90;;;17.51;100.00;96697.53;5020878;28;20493;-80
2023/08/02 04:08:18;;;;;;;7.90;2.53;;;16.80;99.90;;;17.47;100.00;96707.84;5020953;28;20460;-80
2023/08/02 04:10:48;;;;;;;5.10;2.97;;;16.80;99.90;;;17.46;100.00;96702.81;5022074;28;20469;-80
2023/08/02 04:13:19;;;;;;;7.23;2.57;;;16.80;99.90;;;17.48;100.00;96706.78;5020765;28;21068;-81
2023/08/02 04:15:49;;;;;;;5.03;2.87;;;16.80;99.90;;;17.50;100.00;96720.53;5019122;28;20472;-80
2023/08/02 04:18:19;;;;;;;5.17;2.07;;;16.80;99.90;;;17.51;100.00;96718.69;5022797;28;20471;-80
2023/08/02 04:20:51;;;;;;;4.60;2.37;;;16.80;99.90;;;17.47;100.00;96713.13;5019648;28;20479;-80
2023/08/02 04:23:22;;;;;;;6.17;2.60;;;16.80;99.90;;;17.39;100.00;96700.44;5021663;28;20470;-81
2023/08/02 04:25:53;;;;;;;6.40;2.80;;;16.90;99.90;;;17.37;100.00;96691.97;5016644;28;20454;-86
2023/08/02 04:28:21;;;;;;;7.00;3.73;;;16.90;99.90;;;17.38;100.00;96688.28;5021354;28;20516;-80
2023/08/02 04:30:51;;;;;;;3.63;2.07;;;16.80;99.90;;;17.37;100.00;96686.69;5021632;28;20466;-80
2023/08/02 04:33:21;;;;;;;4.63;2.63;;;16.80;99.90;;;17.36;100.00;96690.38;5022800;28;21067;-80
2023/08/02 04:35:53;;;;;;;4.57;2.30;;;16.80;99.90;;;17.40;100.00;96685.38;5019500;28;20630;-81
2023/08/02 04:38:23;;;;;;;10.87;2.90;;;16.80;99.90;;;17.42;100.00;96685.91;5022759;28;20462;-81
2023/08/02 04:40:52;;;;;;;4.70;2.47;;;16.70;99.90;;;17.37;100.00;96689.34;5019890;28;20462;-81
2023/08/02 04:43:22;;;;;;;6.00;2.60;;;16.80;99.90;;;17.40;100.00;96675.59;5021329;28;20454;-80
2023/08/02 04:45:51;;;;;;;4.93;2.43;;;16.70;99.90;;;17.41;100.00;96666.63;5024276;28;20469;-80
2023/08/02 04:48:21;;;;;;;4.73;2.80;;;16.80;99.90;;;17.41;100.00;96669.25;5023709;28;20473;-80
2023/08/02 04:50:53;;;;;;;2.77;2.20;;;16.80;99.90;;;17.40;100.00;96653.66;5024626;28;20937;-81
2023/08/02 04:53:23;;;;;;;8.67;2.30;;;16.70;99.90;;;17.41;100.00;96653.41;5024688;28;20512;-81
2023/08/02 04:55:54;;;;;;;3.93;2.47;;;16.70;99.90;;;17.38;100.00;96656.59;5027944;28;20489;-81
2023/08/02 04:58:26;;;;;;;2.70;2.10;;;16.80;99.90;;;17.41;100.00;96647.31;5026028;28;20470;-81
2023/08/02 05:01:02;;;;;;;3.30;2.10;;;16.70;99.90;;;17.39;100.00;96652.84;5022671;28;20558;-80
2023/08/02 05:03:31;;;;;;;2.50;1.90;;;16.70;99.90;;;17.40;100.00;96646.53;5025427;28;20464;-81
2023/08/02 05:06:03;;;;;;;3.00;2.30;;;16.70;99.90;;;17.39;100.00;96647.56;5024228;28;20473;-80
2023/08/02 05:08:35;;;;;;;3.13;1.97;;;16.80;99.90;;;17.41;100.00;96644.69;5023485;28;20977;-80
2023/08/02 05:11:07;;;;;;;2.70;2.00;;;16.70;99.90;;;17.41;100.00;96642.84;5022113;28;20493;-80
2023/08/02 05:13:37;;;;;;;2.17;1.73;;;16.70;99.90;;;17.43;100.00;96637.25;5023075;28;20501;-80
2023/08/02 05:16:14;;;;;;;3.70;2.00;;;16.70;99.90;;;17.42;100.00;96633.06;5023969;28;20560;-81
2023/08/02 05:18:43;;;;;;;4.07;2.23;;;16.70;99.90;;;17.43;100.00;96634.63;5023134;28;20839;-81
2023/08/02 05:21:16;;;;;;;3.20;1.93;;;16.70;99.90;;;17.45;100.00;96622.75;5023014;28;20466;-80
2023/08/02 05:23:46;;;;;;;3.83;2.20;;;16.60;99.90;;;17.44;100.00;96615.88;5022941;28;20473;-80
2023/08/02 05:26:16;;;;;;;4.80;2.10;;;16.60;99.90;;;17.41;100.00;96597.91;5021521;28;20465;-80
2023/08/02 05:28:46;;;;;;;2.77;1.90;;;16.60;99.90;;;17.40;100.00;96590.22;5022166;28;20462;-80
2023/08/02 05:31:16;;;;;;;2.50;1.70;;;16.60;99.90;;;17.41;100.00;96589.19;5021973;28;20467;-81
2023/08/02 05:33:49;;;;;;;1.93;1.67;;;16.70;99.90;;;17.38;100.00;96576.50;5021578;28;20487;-81
2023/08/02 05:36:21;;;;;;;6.13;3.03;;;16.60;99.90;;;17.39;100.00;96570.16;5023500;28;20565;-80
2023/08/02 05:38:51;;;;;;;4.00;1.50;;;16.70;99.90;;;17.40;100.00;96564.59;5022062;28;20502;-81
2023/08/02 05:41:21;;;;;;;2.03;1.67;;;16.70;99.90;;;17.39;100.00;96551.66;5023107;28;20777;-81
2023/08/02 05:43:51;;;;;;;2.97;1.80;;;16.70;99.90;;;17.38;100.00;96556.16;5022916;28;20466;-80
2023/08/02 05:46:20;;;;;;;4.00;1.80;;;16.70;99.90;;;17.39;100.00;96543.75;5022138;28;20463;-80
2023/08/02 05:48:50;;;;;;;2.07;1.40;;;16.70;99.90;;;17.41;100.00;96533.69;5021858;28;20519;-80
2023/08/02 05:51:22;;;;;;;5.63;1.80;;;16.70;99.90;;;17.36;100.00;96531.81;5021393;28;20512;-80
2023/08/02 05:53:52;;;;;;;1.73;1.60;;;16.70;99.90;;;17.37;100.00;96527.34;5020264;28;20485;-80
2023/08/02 05:56:22;;;;;;;2.47;1.80;;;16.70;99.90;;;17.40;100.00;96522.31;5021480;28;20827;-81
2023/08/02 05:58:53;;;;;;;1.20;1.07;;;16.70;99.90;;;17.40;100.00;96508.31;5023715;28;20462;-81
2023/08/02 06:01:24;;;;;;;3.93;1.83;;;16.70;99.90;;;17.40;100.00;96510.94;5025035;28;20984;-80
2023/08/02 06:03:53;;;;;;;1.50;1.10;;;16.70;99.90;;;17.33;100.00;96492.72;5025735;28;20480;-81
2023/08/02 06:06:25;;;;;;;2.43;1.43;;;16.80;99.90;;;17.35;100.00;96474.78;5027043;28;20961;-80
2023/08/02 06:08:56;;;;;;;2.10;1.37;;;16.80;99.90;;;17.38;100.00;96450.44;5027248;28;20826;-81
2023/08/02 06:11:25;;;;;;;2.03;1.33;;;16.70;99.90;;;17.41;100.00;96441.19;5026419;28;20466;-81
2023/08/02 06:13:56;;;;;;;1.47;1.03;;;16.70;99.90;;;17.39;100.00;96444.06;5026680;28;20491;-80
2023/08/02 06:16:26;;;;;;;2.27;1.27;;;16.80;99.90;;;17.40;100.00;96456.25;5024847;28;20968;-81
2023/08/02 06:18:56;;;;;;;1.73;0.97;;;16.80;99.90;;;17.41;100.00;96457.03;5025629;28;20945;-81
2023/08/02 06:21:26;;;;;;;2.70;1.00;;;16.90;99.90;;;17.45;100.00;96458.88;5023826;28;20880;-80
2023/08/02 06:23:56;;;;;;;1.70;1.07;;;16.80;99.90;;;17.49;100.00;96444.03;5024864;28;20871;-81
2023/08/02 06:26:26;;;;;;;1.20;1.00;;;16.80;99.90;;;17.54;100.00;96435.31;5025193;28;20473;-81
2023/08/02 06:28:56;;;;;;;1.10;0.90;;;16.80;99.90;;;17.57;100.00;96418.94;5025084;28;20470;-81
2023/08/02 06:31:27;;;;;;;1.40;1.00;;;16.80;99.90;;;17.56;100.00;96425.31;5023944;28;20481;-80
2023/08/02 06:33:58;;;;;;;1.20;1.00;;;16.90;99.90;;;17.58;100.00;96423.16;5026251;28;21091;-81
2023/08/02 06:36:29;;;;;;;1.00;0.90;;;16.90;99.90;;;17.55;100.00;96413.09;5025741;28;20466;-81
2023/08/02 06:38:59;;;;;;;0.90;0.80;;;17.00;99.90;;;17.56;100.00;96398.88;5026640;28;20462;-80
2023/08/02 06:41:30;;;;;;;1.00;0.90;;;16.80;99.90;;;17.58;100.00;96410.75;5026200;28;20846;-81
2023/08/02 06:44:01;;;;;;;1.10;0.70;;;16.90;99.90;;;17.59;100.00;96414.19;5027157;28;20468;-80
2023/08/02 06:46:30;;;;;;;1.00;0.80;;;17.00;99.90;;;17.54;100.00;96430.81;5026953;28;20551;-80
2023/08/02 06:49:01;;;;;;;1.00;0.70;;;17.00;99.90;;;17.56;100.00;96436.63;5026884;28;20477;-80
2023/08/02 06:51:34;;;;;;;1.10;0.83;;;17.00;99.90;;;17.58;100.00;96446.97;5025344;28;20458;-80
2023/08/02 06:54:04;;;;;;;1.10;0.97;;;17.00;99.90;;;17.62;100.00;96428.69;5026936;28;20509;-80
2023/08/02 06:56:34;;;;;;;1.77;0.70;;;16.90;99.90;;;17.60;100.00;96413.91;5027416;28;20946;-81
2023/08/02 06:59:05;;;;;;;1.10;0.80;;;16.90;99.90;;;17.60;100.00;96410.47;5027156;28;20465;-81
2023/08/02 07:01:37;;;;;;;1.00;0.80;;;17.00;99.90;;;17.59;100.00;96408.91;5024550;28;20477;-81
2023/08/02 07:04:08;;;;;;;1.00;0.80;;;17.10;99.90;;;17.58;100.00;96416.03;5026565;28;20468;-81
2023/08/02 07:06:40;;;;;;;0.80;0.60;;;17.10;99.90;;;17.60;100.00;96410.47;5025367;28;21105;-81
2023/08/02 07:09:11;;;;;;;0.80;0.70;;;17.00;99.90;;;17.62;100.00;96413.63;5023433;28;20968;-81
2023/08/02 07:11:41;;;;;;;0.80;0.70;;;17.00;99.90;;;17.61;100.00;96401.47;5023815;28;20471;-81
2023/08/02 07:14:11;;;;;;;0.80;0.70;;;17.10;99.90;;;17.61;100.00;96390.91;5024712;28;20493;-80
2023/08/02 07:16:41;;;;;;;0.90;0.80;;;17.10;99.90;;;17.60;100.00;96390.09;5025493;28;20888;-82
2023/08/02 07:19:12;;;;;;;0.83;0.70;;;17.10;99.90;;;17.60;100.00;96387.47;5026219;28;20462;-80
2023/08/02 07:21:45;;;;;;;0.87;0.70;;;17.00;99.90;;;17.61;100.00;96382.97;5025423;28;20470;-81
2023/08/02 07:24:15;;;;;;;0.90;0.70;;;16.90;99.90;;;17.64;100.00;96381.63;5028954;28;20469;-80
2023/08/02 07:26:45;;;;;;;0.90;0.70;;;17.00;99.90;;;17.65;100.00;96380.56;5025781;28;20504;-80
2023/08/02 07:29:15;;;;;;;1.20;0.70;;;17.10;99.90;;;17.66;100.00;96368.94;5024841;28;20905;-81
2023/08/02 07:31:44;;;;;;;1.30;0.80;;;17.10;99.90;;;17.72;100.00;96373.13;5023360;28;20513;-80
2023/08/02 07:34:14;;;;;;;0.80;0.70;;;17.00;99.90;;;17.76;100.00;96371.53;5024329;28;20506;-80
2023/08/02 07:36:45;;;;;;;0.80;0.70;;;17.10;99.90;;;17.77;100.00;96363.31;5021158;28;20462;-80
2023/08/02 07:39:16;;;;;;;1.20;0.73;;;17.20;99.90;;;17.78;100.00;96349.03;5024419;28;20841;-80
2023/08/02 07:41:45;;;;;;;0.90;0.80;;;17.10;99.90;;;17.81;100.00;96348.47;5024560;28;20454;-81
2023/08/02 07:44:14;;;;;;;0.90;0.70;;;17.20;99.90;;;17.83;100.00;96335.00;5025072;28;20461;-81
2023/08/02 07:46:45;;;;;;;0.90;0.80;;;17.20;99.90;;;17.84;100.00;96333.94;5025004;28;21285;-80
2023/08/02 07:49:14;;;;;;;0.90;0.70;;;17.20;99.90;;;17.81;100.00;96339.75;5026020;28;20482;-81
2023/08/02 07:51:45;;;;;;;0.90;0.70;;;17.30;99.90;;;17.77;100.00;96333.44;5024620;28;20482;-80
2023/08/02 07:54:16;;;;;;;2.10;0.70;;;17.40;99.90;;;17.81;100.00;96337.09;5023950;28;21126;-80
2023/08/02 07:56:46;;;;;;;0.90;0.80;;;17.40;99.90;;;17.83;100.00;96329.69;5026216;28;20512;-80
2023/08/02 07:59:15;;;;;;;0.80;0.70;;;17.20;99.90;;;17.85;100.00;96328.34;5024194;28;21031;-80
2023/08/02 08:01:46;;;;;;;0.93;0.63;;;17.10;99.90;;;17.91;100.00;96329.13;5023906;28;20474;-80
2023/08/02 08:04:16;;;;;;;0.80;0.70;;;17.20;99.90;;;17.93;100.00;96319.03;5024539;28;20561;-81
2023/08/02 08:06:48;;;;;;;0.80;0.70;;;17.20;99.90;;;17.90;100.00;96315.09;5023383;28;20454;-81
2023/08/02 08:09:23;;;;;;;0.80;0.60;;;17.30;99.90;;;17.90;100.00;96316.97;5024201;28;20562;-80
2023/08/02 08:11:52;;;;;;;0.80;0.70;;;17.20;99.90;;;17.96;100.00;96316.63;5023327;28;20470;-81
2023/08/02 08:14:23;;;;;;;0.87;0.70;;;17.30;99.90;;;17.98;100.00;96317.13;5023938;28;20493;-80
2023/08/02 08:16:56;;;;;;;0.80;0.60;;;17.40;99.90;;;18.01;100.00;96316.59;5024061;28;20500;-80
2023/08/02 08:19:26;;;;;;;1.00;0.70;;;17.40;99.90;;;18.05;100.00;96303.59;5024731;28;20458;-81
2023/08/02 08:21:58;;;;;;;0.97;0.80;;;17.40;99.90;;;18.07;100.00;96307.56;5020801;28;20844;-81
2023/08/02 08:24:26;;;;;;;0.80;0.67;;;17.50;99.90;;;18.13;100.00;96300.38;5023153;28;20984;-81
2023/08/02 08:26:57;;;;;;;0.80;0.60;;;17.60;99.90;;;18.15;100.00;96294.81;5021274;28;21032;-81
2023/08/02 08:29:28;;;;;;;2.13;0.70;;;17.60;99.90;;;18.17;100.00;96290.00;5021973;28;20454;-81
2023/08/02 08:32:00;;;;;;;0.77;0.63;;;17.60;99.90;;;18.18;100.00;96281.03;5021550;28;20466;-80
2023/08/02 08:34:30;;;;;;;0.80;0.67;;;17.70;99.90;;;18.21;100.00;96281.25;5021899;28;20457;-80
2023/08/02 08:37:02;;;;;;;0.80;0.70;;;17.70;99.90;;;18.25;100.00;96274.34;5023593;28;20462;-81
2023/08/02 08:39:31;;;;;;;0.80;0.70;;;17.70;99.90;;;18.30;100.00;96266.34;5023989;28;20453;-80
2023/08/02 08:42:07;;;;;;;2.13;0.80;;;17.70;99.90;;;18.35;100.00;96270.78;5023849;28;21022;-81
2023/08/02 08:44:38;;;;;;;0.80;0.60;;;17.70;99.90;;;18.37;100.00;96269.44;5024401;28;20926;-80
2023/08/02 08:47:09;;;;;;;0.80;0.60;;;17.70;99.90;;;18.34;100.00;96256.78;5025393;28;20461;-80
2023/08/02 08:49:38;;;;;;;0.90;0.70;;;17.60;99.90;;;18.36;100.00;96256.50;5024840;28;20493;-80
2023/08/02 08:52:16;;;;;;;1.07;0.80;;;17.80;99.90;;;18.40;100.00;96254.84;5021958;28;20493;-80
2023/08/02 08:54:48;;;;;;;0.80;0.60;;;17.80;99.90;;;18.43;100.00;96252.44;5023924;28;20485;-80
2023/08/02 08:57:18;;;;;;;0.77;0.60;;;17.80;99.90;;;18.45;100.00;96252.97;5022146;28;20454;-80
2023/08/02 08:59:48;;;;;;;0.90;0.70;;;17.90;99.90;;;18.49;100.00;96245.25;5022380;28;20477;-80
2023/08/02 09:02:20;;;;;;;0.80;0.70;;;17.90;99.90;;;18.51;100.00;96241.25;5021365;28;20517;-81
2023/08/02 09:04:52;;;;;;;0.90;0.60;;;18.00;99.90;;;18.55;100.00;96250.22;5022545;28;20466;-81
2023/08/02 09:07:23;;;;;;;0.80;0.70;;;17.90;99.90;;;18.60;100.00;96239.56;5024954;28;20485;-80
2023/08/02 09:09:52;;;;;;;1.50;0.80;;;17.90;99.90;;;18.61;100.00;96240.34;5021898;28;20462;-80
2023/08/02 09:12:24;;;;;;;1.27;1.00;;;18.00;99.90;;;18.65;100.00;96236.09;5020722;28;20469;-80
2023/08/02 09:15:03;;;;;;;0.80;0.70;;;18.10;99.90;;;18.69;100.00;96236.31;5021896;28;20501;-80
2023/08/02 09:17:47;;;;;;;1.63;0.60;;;18.10;99.90;;;18.73;100.00;96227.53;5022931;28;20876;-81
2023/08/02 09:20:20;;;;;;;0.80;0.60;;;18.10;99.90;;;18.76;100.00;96226.94;5021435;28;20488;-80
2023/08/02 09:22:52;;;;;;;1.83;0.70;;;18.10;99.90;;;18.81;100.00;96228.75;5020889;28;20922;-80
2023/08/02 09:25:27;;;;;;;1.07;0.70;;;18.10;99.90;;;18.83;100.00;96224.75;5020956;28;20458;-80
2023/08/02 09:27:59;;;;;;;0.97;0.60;;;18.20;99.90;;;18.82;100.00;96219.72;5021743;28;20461;-81
2023/08/02 09:30:32;;;;;;;4.80;1.00;;;18.10;99.90;;;18.84;100.00;96215.75;5021996;28;20493;-80
2023/08/02 09:33:08;;;;;;;2.73;0.90;;;18.10;99.90;;;18.86;100.00;96210.13;5021385;28;20815;-80
2023/08/02 09:35:51;;;;;;;1.43;0.80;;;18.20;99.90;;;18.90;100.00;96219.09;5020615;28;20987;-81
2023/08/02 09:38:21;;;;;;;11.47;0.90;;;18.20;99.90;;;18.92;100.00;96209.00;5023053;28;20520;-80
2023/08/02 09:40:52;;;;;;;1.97;1.00;;;18.20;99.90;;;18.92;100.00;96199.19;5023342;28;20467;-80
2023/08/02 09:43:45;;;;;;;1.10;0.70;;;18.30;99.90;;;18.95;100.00;96198.63;5022556;28;20483;-80
2023/08/02 09:46:25;;;;;;;1.53;0.87;;;18.30;99.90;;;18.98;100.00;96198.06;5022946;28;20972;-81
2023/08/02 09:48:54;;;;;;;1.40;0.80;;;18.40;99.90;;;19.03;100.00;96200.63;5021700;28;20492;-80
2023/08/02 09:51:40;;;;;;;0.90;0.80;;;18.40;99.90;;;19.08;100.00;96191.84;5022240;28;20476;-80
2023/08/02 09:54:15;;;;;;;2.70;0.90;;;18.50;99.90;;;19.15;100.00;96186.97;5020539;28;20522;-80
2023/08/02 09:56:44;;;;;;;0.90;0.70;;;18.50;99.90;;;19.20;100.00;96178.94;5023214;28;20524;-80
2023/08/02 09:59:18;;;;;;;0.80;0.70;;;18.60;99.90;;;19.26;100.00;96182.31;5023132;28;20472;-80
2023/08/02 10:01:50;;;;;;;1.13;0.80;;;18.60;99.90;;;19.29;100.00;96182.53;5022193;28;20484;-80
2023/08/02 10:04:22;;;;;;;0.90;0.70;;;18.60;99.90;;;19.36;100.00;96185.59;5022281;28;20471;-80
2023/08/02 10:07:01;;;;;;;0.80;0.70;;;18.70;99.90;;;19.39;100.00;96178.94;5020756;28;20463;-80
2023/08/02 10:09:36;;;;;;;0.90;0.70;;;18.90;99.90;;;19.43;100.00;96175.44;5022054;28;20472;-81
2023/08/02 10:12:10;;;;;;;0.93;0.73;;;18.90;99.90;;;19.48;100.00;96179.84;5020367;28;20476;-80
2023/08/02 10:14:40;;;;;;;0.80;0.70;;;18.80;99.90;;;19.48;100.00;96175.34;5021945;28;20504;-80
2023/08/02 10:17:11;;;;;;;2.37;0.90;;;18.80;99.90;;;19.53;100.00;96172.63;5019952;28;20514;-80
2023/08/02 10:19:42;;;;;;;1.00;0.70;;;18.90;99.90;;;19.61;100.00;96162.44;5021835;28;20980;-80
2023/08/02 10:22:14;;;;;;;0.80;0.70;;;18.90;99.90;;;19.67;100.00;96169.22;5022079;28;20912;-80
2023/08/02 10:24:46;;;;;;;0.90;0.70;;;19.00;99.90;;;19.72;100.00;96164.63;5022503;28;20468;-79
2023/08/02 10:27:17;;;;;;;0.83;0.77;;;19.10;99.90;;;19.73;100.00;96155.59;5021832;28;20474;-80
2023/08/02 10:29:49;;;;;;;0.90;0.70;;;19.20;99.90;;;19.74;100.00;96161.69;5019358;28;20593;-80